Time;durP1;ratioP1;P1;durP2;ratioP2;P2;SDS_P1;SDS_P2;PMS_P1;PMS_P2;Temp;Humidity;BMP_temperature;BMP_pressure;BME280_temperature;BME280_humidity;BME280_pressure;Samples;Min_cycle;Max_cycle;Signal;HPM_P1;HPM_P2
2022/07/08 00:01:49;;;;;;;3.58;1.20;;;19.70;51.70;;;;;;4995877;28;20092;-44
2022/07/08 00:04:18;;;;;;;3.17;1.02;;;19.70;51.90;;;;;;4975646;28;20038;-44
2022/07/08 00:06:47;;;;;;;3.72;1.20;;;19.70;51.70;;;;;;4991945;28;20046;-46
2022/07/08 00:09:15;;;;;;;5.22;1.25;;;19.70;51.50;;;;;;4990696;28;20066;-44
2022/07/08 00:11:47;;;;;;;4.05;0.93;;;19.70;51.60;;;;;;4998819;28;20046;-45
2022/07/08 00:14:16;;;;;;;3.85;1.35;;;19.70;51.40;;;;;;4992723;28;20100;-44
2022/07/08 00:16:44;;;;;;;3.55;1.30;;;19.60;51.30;;;;;;4992800;28;20039;-43
2022/07/08 00:19:15;;;;;;;6.55;1.20;;;19.60;51.30;;;;;;4987342;28;20034;-44
2022/07/08 00:21:45;;;;;;;6.38;1.80;;;19.60;51.40;;;;;;5002527;28;20469;-46
2022/07/08 00:24:13;;;;;;;3.40;1.23;;;19.60;51.60;;;;;;4992459;28;20585;-43
2022/07/08 00:26:41;;;;;;;5.78;1.17;;;19.50;51.50;;;;;;4990623;28;20042;-45
2022/07/08 00:29:10;;;;;;;2.05;1.17;;;19.50;51.60;;;;;;4998529;28;20404;-44
2022/07/08 00:31:37;;;;;;;6.28;1.60;;;19.50;51.70;;;;;;4992595;28;20050;-45
2022/07/08 00:34:04;;;;;;;4.05;1.40;;;19.50;51.70;;;;;;4999383;28;20040;-43
2022/07/08 00:36:34;;;;;;;4.88;1.17;;;19.50;51.70;;;;;;5000917;28;20050;-45
2022/07/08 00:39:07;;;;;;;3.78;1.15;;;19.50;51.90;;;;;;4993258;28;20046;-43
2022/07/08 00:41:36;;;;;;;3.63;1.40;;;19.50;51.90;;;;;;4998200;28;20062;-44
2022/07/08 00:44:03;;;;;;;6.63;1.42;;;19.50;51.90;;;;;;4991593;28;20413;-45
2022/07/08 00:46:35;;;;;;;3.80;1.30;;;19.50;51.90;;;;;;4992773;28;20046;-42
2022/07/08 00:49:02;;;;;;;6.07;1.42;;;19.50;51.80;;;;;;4994158;28;20038;-44
2022/07/08 00:51:41;;;;;;;4.28;1.33;;;19.40;51.80;;;;;;4992305;28;20038;-44
2022/07/08 00:54:08;;;;;;;4.93;1.27;;;19.40;51.90;;;;;;4989678;28;20090;-44
2022/07/08 00:56:35;;;;;;;4.28;1.52;;;19.40;52.00;;;;;;4983799;28;20053;-44
2022/07/08 00:59:02;;;;;;;2.65;1.30;;;19.40;52.10;;;;;;4990106;28;20084;-44
2022/07/08 01:01:40;;;;;;;4.88;1.52;;;19.40;52.90;;;;;;4999976;28;20065;-42
2022/07/08 01:04:08;;;;;;;3.15;2.03;;;19.40;52.30;;;;;;4992073;28;20050;-43
2022/07/08 01:06:38;;;;;;;3.83;1.33;;;19.50;52.40;;;;;;4990748;28;20498;-46
2022/07/08 01:09:07;;;;;;;3.17;1.45;;;19.30;52.30;;;;;;4994566;28;20057;-43
2022/07/08 01:11:39;;;;;;;3.88;1.30;;;19.40;52.60;;;;;;4992112;28;20046;-42
2022/07/08 01:14:16;;;;;;;4.90;2.20;;;19.40;52.50;;;;;;4991862;28;20686;-44
2022/07/08 01:16:43;;;;;;;5.07;1.58;;;19.40;52.60;;;;;;4995374;28;20054;-45
2022/07/08 01:19:11;;;;;;;3.90;2.35;;;19.40;52.60;;;;;;4992312;28;20088;-43
2022/07/08 01:21:42;;;;;;;3.85;1.40;;;19.40;52.60;;;;;;4991784;28;20046;-44
2022/07/08 01:24:09;;;;;;;3.63;1.30;;;19.40;52.60;;;;;;4993332;28;20568;-44
2022/07/08 01:26:36;;;;;;;2.22;1.10;;;19.40;52.60;;;;;;4995555;28;20105;-44
2022/07/08 01:29:04;;;;;;;4.03;1.50;;;19.40;52.60;;;;;;4991393;28;20077;-44
2022/07/08 01:31:30;;;;;;;4.72;2.20;;;19.40;52.60;;;;;;4990708;28;20070;-44
2022/07/08 01:33:57;;;;;;;2.78;1.25;;;19.40;52.60;;;;;;4988268;28;20046;-43
2022/07/08 01:36:26;;;;;;;4.70;1.50;;;19.40;52.60;;;;;;5001492;28;20105;-45
2022/07/08 01:38:57;;;;;;;3.63;1.55;;;19.30;52.50;;;;;;4991343;28;20046;-44
2022/07/08 01:41:26;;;;;;;4.60;1.30;;;19.30;52.50;;;;;;4991561;28;20047;-44
2022/07/08 01:43:52;;;;;;;3.80;1.58;;;19.30;52.60;;;;;;4993094;28;20050;-44
2022/07/08 01:46:19;;;;;;;5.97;1.20;;;19.30;52.60;;;;;;4994318;28;20039;-45
2022/07/08 01:48:46;;;;;;;4.43;1.52;;;19.30;52.80;;;;;;4991093;28;20093;-45
2022/07/08 01:51:15;;;;;;;7.40;1.80;;;19.30;52.90;;;;;;4989610;28;20100;-44
2022/07/08 01:53:49;;;;;;;5.88;1.40;;;19.30;52.90;;;;;;4987476;28;20038;-45
2022/07/08 01:56:20;;;;;;;4.93;1.58;;;19.30;53.00;;;;;;4997685;28;20058;-44
2022/07/08 01:58:47;;;;;;;3.15;1.10;;;19.20;53.00;;;;;;4988317;28;20051;-43
2022/07/08 02:01:13;;;;;;;3.67;1.33;;;19.20;52.90;;;;;;4998732;28;20444;-45
2022/07/08 02:03:45;;;;;;;5.75;1.25;;;19.20;53.00;;;;;;4991342;28;20504;-46
2022/07/08 02:06:12;;;;;;;2.65;1.13;;;19.20;53.00;;;;;;4992571;28;20482;-43
2022/07/08 02:08:39;;;;;;;2.58;1.92;;;19.20;53.10;;;;;;4992071;28;20061;-44
2022/07/08 02:13:55;;;;;;;2.85;1.35;;;19.10;53.20;;;;;;4995693;28;20070;-46
2022/07/08 02:16:22;;;;;;;3.63;1.27;;;19.10;53.30;;;;;;4994731;28;20042;-44
2022/07/08 02:18:49;;;;;;;7.97;2.08;;;19.10;53.30;;;;;;4990524;28;20050;-44
2022/07/08 02:21:17;;;;;;;4.70;1.67;;;19.10;53.40;;;;;;5004827;28;20120;-43
2022/07/08 02:23:48;;;;;;;5.18;1.83;;;19.10;53.40;;;;;;4995003;28;20054;-43
2022/07/08 02:26:19;;;;;;;8.98;2.20;;;19.10;53.50;;;;;;4994469;28;20048;-43
2022/07/08 02:28:45;;;;;;;6.13;1.60;;;19.10;53.70;;;;;;4997970;28;20097;-45
2022/07/08 02:31:24;;;;;;;3.20;1.70;;;19.00;53.80;;;;;;4996857;28;20121;-44
2022/07/08 02:33:53;;;;;;;5.18;1.58;;;19.10;53.90;;;;;;5003058;28;20038;-43
2022/07/08 02:36:20;;;;;;;3.83;1.77;;;19.00;53.90;;;;;;4974821;28;20513;-44
2022/07/08 02:38:46;;;;;;;5.82;1.48;;;19.00;54.00;;;;;;4975275;28;20459;-44
2022/07/08 02:41:13;;;;;;;3.25;1.30;;;19.00;53.90;;;;;;4992283;28;20404;-45
2022/07/08 02:43:40;;;;;;;2.78;1.45;;;19.00;54.10;;;;;;4996948;28;20115;-43
2022/07/08 02:46:07;;;;;;;1.95;1.10;;;19.00;54.20;;;;;;4994040;28;20046;-45
2022/07/08 02:48:37;;;;;;;3.15;1.10;;;19.00;54.20;;;;;;4992390;28;20038;-45
2022/07/08 02:51:04;;;;;;;4.05;1.17;;;18.90;54.20;;;;;;5003200;28;20452;-45
2022/07/08 02:53:33;;;;;;;3.13;1.27;;;18.90;54.20;;;;;;4994565;28;20473;-45
2022/07/08 02:56:00;;;;;;;5.03;1.30;;;18.90;54.30;;;;;;4993976;28;20054;-45
2022/07/08 02:58:29;;;;;;;8.77;2.40;;;18.90;54.90;;;;;;4990353;28;20697;-44
2022/07/08 03:01:00;;;;;;;5.68;1.52;;;18.90;54.30;;;;;;5000189;28;20049;-43
2022/07/08 03:03:31;;;;;;;6.13;1.67;;;18.90;54.40;;;;;;4994477;28;20526;-44
2022/07/08 03:05:57;;;;;;;2.22;1.35;;;18.90;54.40;;;;;;4993198;28;20047;-44
2022/07/08 03:08:24;;;;;;;3.70;1.38;;;18.90;54.40;;;;;;4987130;28;20046;-45
2022/07/08 03:10:52;;;;;;;4.18;1.02;;;18.90;54.60;;;;;;5005370;28;20053;-44
2022/07/08 03:13:21;;;;;;;3.85;1.73;;;18.90;54.60;;;;;;4998483;28;20066;-43
2022/07/08 03:15:49;;;;;;;7.07;1.42;;;18.80;54.50;;;;;;4988646;28;20054;-44
2022/07/08 03:18:16;;;;;;;4.53;1.77;;;18.80;54.50;;;;;;4995062;28;20042;-43
2022/07/08 03:20:53;;;;;;;3.30;1.55;;;18.80;55.10;;;;;;4994728;28;20093;-45
2022/07/08 03:23:19;;;;;;;3.33;1.33;;;18.80;54.70;;;;;;4992508;28;20046;-44
2022/07/08 03:25:48;;;;;;;3.58;1.38;;;18.70;54.60;;;;;;5003032;28;20034;-44
2022/07/08 03:28:18;;;;;;;3.20;1.10;;;18.70;54.60;;;;;;4992004;28;20494;-42
2022/07/08 03:30:48;;;;;;;3.63;1.30;;;18.70;54.70;;;;;;4994419;28;20096;-44
2022/07/08 03:33:14;;;;;;;2.95;1.27;;;18.70;54.90;;;;;;4994573;28;20042;-44
2022/07/08 03:35:44;;;;;;;4.35;1.33;;;18.70;55.00;;;;;;4991954;28;20244;-45
2022/07/08 03:38:15;;;;;;;3.43;1.83;;;18.70;55.10;;;;;;5001973;28;20429;-45
2022/07/08 03:43:28;;;;;;;3.30;1.48;;;18.60;55.00;;;;;;4994182;28;20047;-43
2022/07/08 03:45:55;;;;;;;4.38;1.70;;;18.60;54.90;;;;;;4994550;28;20485;-44
2022/07/08 03:48:27;;;;;;;4.40;1.48;;;18.60;55.00;;;;;;4996749;28;20049;-42
2022/07/08 03:50:54;;;;;;;4.35;1.65;;;18.60;54.90;;;;;;4994230;28;20047;-44
2022/07/08 03:53:23;;;;;;;7.55;1.50;;;18.50;54.90;;;;;;4991768;28;20057;-43
2022/07/08 03:55:51;;;;;;;6.88;1.83;;;18.50;55.00;;;;;;4997107;28;20042;-45
2022/07/08 03:58:21;;;;;;;2.55;1.63;;;18.50;55.00;;;;;;4992201;28;20057;-42
2022/07/08 04:00:48;;;;;;;4.80;1.60;;;18.50;55.00;;;;;;4998705;28;20125;-44
2022/07/08 04:03:17;;;;;;;5.57;1.58;;;18.40;55.00;;;;;;4992800;28;20048;-44
2022/07/08 04:05:46;;;;;;;2.95;1.25;;;18.40;55.10;;;;;;4998471;28;20042;-43
2022/07/08 04:08:21;;;;;;;4.78;1.70;;;18.40;55.20;;;;;;4993405;28;20070;-43
2022/07/08 04:10:48;;;;;;;3.78;1.50;;;18.40;55.30;;;;;;4993873;28;20453;-44
2022/07/08 04:13:17;;;;;;;5.55;1.58;;;18.30;55.40;;;;;;4991463;28;20041;-44
2022/07/08 04:15:50;;;;;;;4.13;1.27;;;18.30;55.50;;;;;;4997866;28;20524;-43
2022/07/08 04:18:23;;;;;;;4.28;1.58;;;18.30;55.50;;;;;;4974013;28;20038;-42
2022/07/08 04:21:00;;;;;;;3.97;1.70;;;18.30;55.60;;;;;;4974910;28;20065;-44
2022/07/08 04:23:27;;;;;;;4.88;1.30;;;18.30;55.70;;;;;;4993242;28;20046;-45
2022/07/08 04:25:57;;;;;;;2.22;1.45;;;18.30;55.50;;;;;;4985740;28;20042;-43
2022/07/08 04:28:24;;;;;;;4.03;2.42;;;18.20;55.50;;;;;;4992530;28;20042;-43
2022/07/08 04:30:51;;;;;;;8.57;1.95;;;18.30;55.70;;;;;;4989464;28;20050;-45
2022/07/08 04:33:18;;;;;;;4.13;1.50;;;18.20;55.80;;;;;;4989101;28;20118;-44
2022/07/08 04:35:45;;;;;;;3.40;1.52;;;18.20;55.90;;;;;;4992555;28;20043;-43
2022/07/08 04:38:12;;;;;;;5.70;1.45;;;18.10;56.00;;;;;;4992303;28;20429;-43
2022/07/08 04:40:38;;;;;;;3.13;1.83;;;18.10;56.00;;;;;;4988185;28;20050;-42
2022/07/08 04:43:05;;;;;;;4.07;1.58;;;18.10;56.00;;;;;;4988026;28;20093;-43
2022/07/08 04:45:32;;;;;;;4.10;1.65;;;18.00;56.10;;;;;;4991323;28;20399;-43
2022/07/08 04:47:59;;;;;;;4.20;1.83;;;18.00;56.20;;;;;;4992710;28;20395;-43
2022/07/08 04:50:26;;;;;;;2.95;1.45;;;18.00;56.40;;;;;;4991408;28;20417;-44
2022/07/08 04:52:52;;;;;;;3.13;2.17;;;18.00;56.50;;;;;;5002687;28;20057;-43
2022/07/08 04:55:28;;;;;;;3.17;1.67;;;18.00;56.60;;;;;;4985119;28;20034;-45
2022/07/08 04:58:00;;;;;;;3.35;2.08;;;17.90;56.70;;;;;;4986522;28;20074;-45
2022/07/08 05:00:30;;;;;;;4.65;2.80;;;18.00;57.00;;;;;;4985652;28;20509;-43
2022/07/08 05:02:56;;;;;;;5.55;2.20;;;18.00;56.90;;;;;;4992079;28;20558;-45
2022/07/08 05:05:24;;;;;;;4.35;2.22;;;17.90;56.90;;;;;;4989367;28;20410;-46
2022/07/08 05:07:51;;;;;;;5.35;2.42;;;17.90;57.10;;;;;;4987583;28;20483;-43
2022/07/08 05:10:23;;;;;;;4.63;2.20;;;17.90;57.00;;;;;;4992529;28;20045;-44
2022/07/08 05:12:50;;;;;;;6.57;2.15;;;17.90;57.10;;;;;;4979115;28;20138;-49
2022/07/08 05:15:19;;;;;;;5.88;2.25;;;17.90;57.10;;;;;;5010897;28;20124;-50
2022/07/08 05:17:51;;;;;;;5.75;2.30;;;17.90;57.10;;;;;;4971262;28;20057;-48
2022/07/08 05:20:19;;;;;;;6.93;2.33;;;17.90;57.30;;;;;;4997172;28;20064;-48
2022/07/08 05:22:46;;;;;;;6.78;3.08;;;18.00;57.50;;;;;;4995475;28;20042;-46
2022/07/08 05:25:13;;;;;;;7.15;2.55;;;17.90;57.40;;;;;;4991846;28;20453;-47
2022/07/08 05:27:40;;;;;;;7.05;2.40;;;18.00;57.60;;;;;;4978140;28;20445;-48
2022/07/08 05:30:09;;;;;;;6.13;2.38;;;18.00;57.70;;;;;;4995308;28;20493;-47
2022/07/08 05:32:36;;;;;;;3.90;2.05;;;18.00;57.60;;;;;;4991904;28;20073;-46
2022/07/08 05:35:06;;;;;;;4.15;2.17;;;18.00;57.60;;;;;;4991523;28;20089;-49
2022/07/08 05:37:37;;;;;;;10.23;2.72;;;18.00;57.90;;;;;;4985884;28;20098;-45
2022/07/08 05:40:07;;;;;;;5.20;2.20;;;18.00;57.50;;;;;;5005464;28;20119;-45
2022/07/08 05:42:34;;;;;;;3.22;1.90;;;18.10;57.60;;;;;;4991629;28;20042;-49
2022/07/08 05:45:01;;;;;;;3.63;2.30;;;18.10;57.40;;;;;;4991755;28;20072;-46
2022/07/08 05:47:27;;;;;;;4.03;2.20;;;18.10;57.40;;;;;;4993346;28;20038;-47
2022/07/08 05:49:56;;;;;;;3.95;2.25;;;18.10;57.20;;;;;;4994720;28;20461;-44
2022/07/08 05:52:23;;;;;;;3.95;2.13;;;18.10;57.90;;;;;;4991551;28;20640;-49
2022/07/08 05:54:50;;;;;;;3.58;2.50;;;18.20;57.40;;;;;;4992378;28;20410;-46
2022/07/08 05:57:16;;;;;;;3.47;2.05;;;18.20;57.30;;;;;;4987724;28;20565;-48
2022/07/08 05:59:44;;;;;;;4.75;1.70;;;18.30;57.10;;;;;;4996192;28;20046;-46
2022/07/08 06:02:11;;;;;;;4.32;1.73;;;18.30;57.10;;;;;;4991043;28;20576;-44
2022/07/08 06:04:40;;;;;;;3.13;1.42;;;18.30;57.20;;;;;;4993989;28;20046;-44
2022/07/08 06:07:07;;;;;;;6.30;1.90;;;18.30;57.10;;;;;;4991905;28;20042;-43
2022/07/08 06:09:33;;;;;;;13.88;2.53;;;18.30;56.80;;;;;;4987836;28;20426;-45
2022/07/08 06:12:00;;;;;;;6.25;1.83;;;18.40;56.90;;;;;;4988806;28;20030;-44
2022/07/08 06:14:27;;;;;;;6.50;2.03;;;18.40;57.20;;;;;;4996171;28;20089;-45
2022/07/08 06:16:54;;;;;;;5.20;1.80;;;18.40;56.50;;;;;;4982091;28;20042;-45
2022/07/08 06:19:21;;;;;;;5.93;1.75;;;18.50;56.60;;;;;;4991263;28;20046;-44
2022/07/08 06:21:47;;;;;;;5.88;1.85;;;18.50;56.60;;;;;;4982799;28;20051;-43
2022/07/08 06:24:15;;;;;;;6.57;1.67;;;18.60;56.70;;;;;;4990979;28;20050;-42
2022/07/08 06:26:43;;;;;;;4.25;1.58;;;18.60;56.70;;;;;;4990991;28;20038;-43
2022/07/08 06:29:10;;;;;;;8.27;1.60;;;18.60;56.10;;;;;;4982301;28;20033;-43
2022/07/08 06:31:38;;;;;;;4.93;2.15;;;18.70;56.20;;;;;;4998445;28;20112;-45
2022/07/08 06:34:06;;;;;;;4.80;1.90;;;18.70;56.30;;;;;;4989356;28;20043;-45
2022/07/08 06:36:32;;;;;;;1.95;1.00;;;18.70;55.90;;;;;;5000831;28;20054;-44
2022/07/08 06:39:01;;;;;;;4.93;1.13;;;18.80;55.50;;;;;;4990064;28;20049;-45
2022/07/08 06:41:30;;;;;;;3.92;0.90;;;18.80;55.50;;;;;;4991169;28;20525;-44
2022/07/08 06:43:57;;;;;;;3.40;1.55;;;18.80;54.80;;;;;;4994350;28;20096;-45
2022/07/08 06:46:24;;;;;;;10.43;2.53;;;19.00;55.00;;;;;;4996026;28;20387;-43
2022/07/08 06:48:52;;;;;;;3.28;0.90;;;19.00;55.00;;;;;;4990729;28;20234;-44
2022/07/08 06:51:19;;;;;;;3.00;1.02;;;19.00;54.90;;;;;;4980983;28;20094;-47
2022/07/08 06:56:31;;;;;;;4.03;1.15;;;19.00;54.70;;;;;;4999295;28;20057;-43
2022/07/08 06:58:57;;;;;;;3.85;1.38;;;19.20;54.60;;;;;;4997178;28;20069;-42
2022/07/08 07:01:24;;;;;;;2.35;1.13;;;19.20;54.30;;;;;;4990189;28;20042;-42
2022/07/08 07:03:51;;;;;;;3.95;1.13;;;19.20;54.00;;;;;;4994682;28;20073;-43
2022/07/08 07:06:17;;;;;;;8.70;1.27;;;19.30;53.90;;;;;;4996697;28;20057;-43
2022/07/08 07:08:46;;;;;;;3.45;1.98;;;19.30;54.00;;;;;;4994293;28;20506;-42
2022/07/08 07:11:13;;;;;;;2.72;1.00;;;19.30;53.70;;;;;;4988915;28;20043;-45
2022/07/08 07:13:41;;;;;;;2.03;0.95;;;19.40;53.20;;;;;;4992874;28;20046;-43
2022/07/08 07:16:07;;;;;;;5.28;1.20;;;19.40;53.50;;;;;;4993957;28;20047;-43
2022/07/08 07:18:34;;;;;;;1.73;0.90;;;19.50;53.90;;;;;;4994130;28;20050;-45
2022/07/08 07:21:01;;;;;;;3.28;1.20;;;19.50;53.60;;;;;;4988799;28;20038;-47
2022/07/08 07:23:28;;;;;;;6.18;1.67;;;19.50;53.30;;;;;;5006951;28;20502;-49
2022/07/08 07:25:56;;;;;;;3.47;1.10;;;19.50;52.90;;;;;;4993634;28;20039;-49
2022/07/08 07:28:23;;;;;;;3.03;1.10;;;19.60;53.20;;;;;;4993758;28;20050;-49
2022/07/08 07:30:50;;;;;;;2.05;1.08;;;19.60;53.00;;;;;;4992652;28;20057;-46
2022/07/08 07:33:17;;;;;;;5.57;1.38;;;19.70;53.40;;;;;;4997168;28;20490;-44
2022/07/08 07:35:43;;;;;;;2.63;1.25;;;19.70;53.30;;;;;;4992802;28;20042;-44
2022/07/08 07:38:10;;;;;;;5.45;1.67;;;19.80;53.40;;;;;;4989347;28;20623;-45
2022/07/08 07:40:37;;;;;;;3.33;1.17;;;19.80;52.80;;;;;;5005078;28;20465;-43
2022/07/08 07:43:03;;;;;;;3.38;1.00;;;19.90;52.70;;;;;;4993775;28;20065;-43
2022/07/08 07:45:30;;;;;;;5.97;1.02;;;19.90;52.70;;;;;;4992838;28;20077;-45
2022/07/08 07:47:57;;;;;;;2.70;1.25;;;19.90;52.70;;;;;;4995023;28;20030;-45
2022/07/08 07:50:26;;;;;;;2.97;1.00;;;20.00;52.30;;;;;;4995661;28;20038;-45
2022/07/08 07:52:53;;;;;;;2.95;1.00;;;20.10;52.50;;;;;;4996555;28;20403;-48
2022/07/08 07:55:20;;;;;;;4.25;1.48;;;20.10;52.40;;;;;;4993180;28;20050;-48
2022/07/08 07:57:48;;;;;;;4.45;1.10;;;20.10;52.40;;;;;;4993209;28;20561;-47
2022/07/08 08:00:16;;;;;;;3.95;1.10;;;20.20;52.10;;;;;;4997263;28;20046;-43
2022/07/08 08:02:43;;;;;;;3.10;1.00;;;20.20;51.80;;;;;;4989407;28;20051;-43
2022/07/08 08:05:10;;;;;;;5.20;1.98;;;20.20;51.60;;;;;;5000480;28;20046;-44
2022/07/08 08:07:38;;;;;;;5.18;1.20;;;20.20;51.90;;;;;;4989188;28;20295;-45
2022/07/08 08:10:06;;;;;;;5.03;1.30;;;20.30;51.70;;;;;;5000231;28;20065;-44
2022/07/08 08:12:33;;;;;;;3.00;1.52;;;20.30;51.30;;;;;;4999093;28;20034;-43
2022/07/08 08:14:59;;;;;;;3.13;1.90;;;20.30;51.30;;;;;;4993224;28;20097;-46
2022/07/08 08:17:26;;;;;;;7.90;1.25;;;20.30;51.60;;;;;;4989732;28;20058;-44
2022/07/08 08:19:53;;;;;;;4.65;1.48;;;20.30;51.30;;;;;;4994515;28;20058;-42
2022/07/08 08:22:19;;;;;;;6.75;1.90;;;20.30;51.10;;;;;;4985328;28;20046;-44
2022/07/08 08:24:46;;;;;;;5.28;1.23;;;20.30;51.30;;;;;;4993125;28;20112;-43
2022/07/08 08:27:13;;;;;;;2.42;1.25;;;20.40;51.60;;;;;;4985714;28;20410;-43
2022/07/08 08:29:40;;;;;;;5.85;1.50;;;20.40;51.60;;;;;;4993622;28;20046;-44
2022/07/08 08:32:07;;;;;;;7.30;2.13;;;20.50;51.70;;;;;;4992978;28;20042;-44
2022/07/08 08:34:33;;;;;;;3.45;1.42;;;20.50;51.80;;;;;;4992725;28;20489;-45
2022/07/08 08:37:00;;;;;;;5.18;1.40;;;20.60;51.40;;;;;;4987845;28;20453;-44
2022/07/08 08:39:27;;;;;;;4.00;1.55;;;20.60;51.20;;;;;;4994362;28;20525;-44
2022/07/08 08:41:54;;;;;;;3.92;1.33;;;20.70;51.30;;;;;;4992774;28;20050;-43
2022/07/08 08:44:21;;;;;;;4.35;1.48;;;20.70;50.80;;;;;;4990140;28;20415;-45
2022/07/08 08:46:49;;;;;;;5.28;1.50;;;20.80;50.70;;;;;;4995458;28;20101;-44
2022/07/08 08:49:18;;;;;;;3.67;1.35;;;20.90;50.60;;;;;;4992526;28;20046;-45
2022/07/08 08:51:50;;;;;;;2.70;1.20;;;20.90;50.70;;;;;;4992103;28;20049;-42
2022/07/08 08:54:17;;;;;;;3.13;1.48;;;21.00;50.90;;;;;;4990187;28;20465;-45
2022/07/08 08:56:46;;;;;;;2.90;1.25;;;21.20;50.90;;;;;;4990535;28;20050;-43
2022/07/08 08:59:18;;;;;;;7.05;2.10;;;21.30;50.80;;;;;;4998842;28;20042;-44
2022/07/08 09:01:46;;;;;;;3.87;2.23;;;21.40;50.50;;;;;;5011964;28;20046;-44
2022/07/08 09:04:13;;;;;;;6.40;1.38;;;21.60;50.30;;;;;;4994123;28;20031;-44
2022/07/08 09:06:40;;;;;;;5.78;1.80;;;21.70;50.10;;;;;;4990724;28;20105;-43
2022/07/08 09:09:07;;;;;;;3.58;1.77;;;21.70;49.80;;;;;;4992109;28;20042;-45
2022/07/08 09:11:34;;;;;;;4.35;1.70;;;21.80;49.80;;;;;;4992135;28;20042;-43
2022/07/08 09:14:18;;;;;;;6.78;1.50;;;21.80;49.60;;;;;;4992063;28;20042;-44
2022/07/08 09:17:07;;;;;;;4.90;1.80;;;21.90;48.90;;;;;;4993128;28;20457;-44
2022/07/08 09:19:33;;;;;;;6.35;1.77;;;21.90;48.90;;;;;;4972555;28;20035;-45
2022/07/08 09:22:00;;;;;;;5.63;1.80;;;21.90;49.20;;;;;;4984556;28;20433;-44
2022/07/08 09:24:30;;;;;;;2.47;1.45;;;21.90;49.40;;;;;;4995865;28;20046;-43
2022/07/08 09:27:01;;;;;;;11.30;2.42;;;21.90;49.30;;;;;;4994384;28;20042;-43
2022/07/08 09:29:31;;;;;;;4.57;1.60;;;21.90;49.40;;;;;;4985616;28;20121;-43
2022/07/08 09:32:11;;;;;;;5.38;1.50;;;22.00;49.40;;;;;;4982280;28;20046;-45
2022/07/08 09:34:39;;;;;;;5.47;1.50;;;22.00;49.40;;;;;;4980525;28;20042;-44
2022/07/08 09:37:14;;;;;;;6.28;1.48;;;22.10;49.50;;;;;;4989545;28;20573;-44
2022/07/08 09:39:41;;;;;;;3.80;1.90;;;22.20;49.10;;;;;;4974063;28;20058;-45
2022/07/08 09:42:09;;;;;;;5.45;1.50;;;22.10;49.00;;;;;;4991365;28;20099;-45
2022/07/08 09:44:37;;;;;;;2.95;1.38;;;22.20;48.60;;;;;;4992811;28;20097;-44
2022/07/08 09:47:11;;;;;;;5.68;1.77;;;22.20;48.70;;;;;;4991263;28;20045;-46
2022/07/08 09:49:42;;;;;;;6.63;1.30;;;22.30;48.30;;;;;;4988468;28;20046;-45
2022/07/08 09:52:10;;;;;;;3.60;1.33;;;22.30;48.50;;;;;;4999511;28;20505;-44
2022/07/08 09:54:37;;;;;;;3.83;1.80;;;22.40;48.50;;;;;;4987345;28;20065;-45
2022/07/08 09:57:08;;;;;;;3.85;1.42;;;22.50;48.50;;;;;;4983672;28;20042;-46
2022/07/08 09:59:35;;;;;;;3.78;1.80;;;22.50;48.70;;;;;;4997905;28;20120;-45
2022/07/08 10:02:03;;;;;;;5.78;1.98;;;22.60;48.50;;;;;;4997107;28;20099;-44
2022/07/08 10:04:31;;;;;;;4.53;1.90;;;22.70;48.20;;;;;;4981876;28;20042;-42
2022/07/08 10:06:59;;;;;;;5.03;1.85;;;22.70;48.40;;;;;;4990977;28;20101;-43
2022/07/08 10:09:27;;;;;;;7.13;2.25;;;22.70;48.20;;;;;;4982619;28;20051;-44
2022/07/08 10:11:54;;;;;;;4.32;2.15;;;22.70;47.90;;;;;;4999067;28;20386;-45
2022/07/08 10:14:21;;;;;;;4.82;1.60;;;22.70;48.20;;;;;;4988455;28;20406;-45
2022/07/08 10:16:48;;;;;;;5.10;2.15;;;22.70;48.00;;;;;;4990989;28;20093;-47
2022/07/08 10:19:24;;;;;;;5.30;2.40;;;22.80;48.20;;;;;;4983956;28;20042;-44
2022/07/08 10:21:54;;;;;;;9.18;2.30;;;22.80;48.00;;;;;;4998326;28;20105;-44
2022/07/08 10:24:25;;;;;;;6.07;2.47;;;22.80;47.90;;;;;;4986582;28;20038;-46
2022/07/08 10:26:52;;;;;;;2.45;1.30;;;22.90;47.70;;;;;;4975065;28;20105;-43
2022/07/08 10:29:31;;;;;;;7.22;2.53;;;22.90;48.30;;;;;;4990500;28;20030;-43
2022/07/08 10:32:02;;;;;;;5.28;1.50;;;23.00;47.80;;;;;;4994811;28;20113;-43
2022/07/08 10:34:30;;;;;;;4.57;1.55;;;23.00;48.00;;;;;;4984176;28;20051;-44
2022/07/08 10:36:57;;;;;;;5.25;2.10;;;23.10;47.90;;;;;;4962646;28;20047;-45
2022/07/08 10:39:39;;;;;;;3.00;2.10;;;23.20;47.30;;;;;;4995297;28;20379;-44
2022/07/08 10:42:07;;;;;;;;;;;23.30;46.90;;;;;;4994930;28;20077;-45
2022/07/08 10:44:43;;;;;;;8.18;1.88;;;23.40;47.60;;;;;;4994848;28;20452;-45
2022/07/08 10:47:14;;;;;;;5.18;2.20;;;23.50;46.50;;;;;;4995790;28;20052;-43
2022/07/08 10:49:46;;;;;;;8.77;2.22;;;23.50;46.30;;;;;;4997579;28;20391;-43
2022/07/08 10:52:17;;;;;;;8.52;2.45;;;23.60;46.80;;;;;;4994429;28;20046;-44
2022/07/08 10:54:44;;;;;;;8.90;1.40;;;23.70;46.70;;;;;;4987898;28;20042;-43
2022/07/08 10:57:15;;;;;;;2.25;1.20;;;23.80;46.50;;;;;;4992917;28;20080;-43
2022/07/08 10:59:44;;;;;;;5.47;1.98;;;23.90;46.40;;;;;;4997837;28;20057;-44
2022/07/08 11:02:16;;;;;;;5.47;1.70;;;24.00;46.10;;;;;;4993522;28;20513;-46
2022/07/08 11:04:44;;;;;;;4.03;1.55;;;24.10;46.50;;;;;;4992544;28;20042;-45
2022/07/08 11:07:26;;;;;;;6.65;2.45;;;24.20;46.00;;;;;;5000392;28;20043;-44
2022/07/08 11:10:08;;;;;;;5.40;2.58;;;24.30;45.70;;;;;;4991008;28;20042;-43
2022/07/08 11:12:37;;;;;;;4.80;1.60;;;24.40;45.90;;;;;;4992940;28;20589;-45
2022/07/08 11:15:06;;;;;;;4.07;1.90;;;24.50;45.40;;;;;;4999854;28;20038;-45
2022/07/08 11:17:35;;;;;;;4.40;1.60;;;24.60;45.20;;;;;;4999691;28;20536;-45
2022/07/08 11:20:09;;;;;;;4.13;1.70;;;24.80;45.10;;;;;;4994256;28;20050;-46
2022/07/08 11:22:40;;;;;;;4.38;1.90;;;24.90;45.00;;;;;;4992051;28;20046;-45
2022/07/08 11:25:09;;;;;;;11.60;2.38;;;25.10;44.90;;;;;;4999096;28;20053;-46
2022/07/08 11:27:36;;;;;;;8.45;2.40;;;25.40;45.00;;;;;;4993644;28;20046;-43
2022/07/08 11:30:10;;;;;;;5.13;1.67;;;25.60;44.80;;;;;;4991930;28;20039;-49
2022/07/08 11:32:37;;;;;;;2.80;1.98;;;25.80;44.10;;;;;;4988435;28;20042;-49
2022/07/08 11:35:05;;;;;;;2.88;1.20;;;26.00;43.50;;;;;;4996341;28;20034;-45
2022/07/08 11:37:32;;;;;;;3.60;1.48;;;26.20;43.30;;;;;;4994498;28;20065;-49
2022/07/08 11:40:01;;;;;;;2.17;1.33;;;26.40;43.30;;;;;;4990959;28;20047;-46
2022/07/08 11:42:28;;;;;;;2.75;0.93;;;26.60;42.90;;;;;;4993953;28;20096;-49
2022/07/08 11:45:02;;;;;;;4.32;1.25;;;26.70;43.30;;;;;;4989340;28;20042;-45
2022/07/08 11:47:29;;;;;;;4.97;1.50;;;26.90;42.80;;;;;;4992841;28;20049;-47
2022/07/08 11:49:56;;;;;;;2.00;1.58;;;27.10;42.00;;;;;;4990327;28;20034;-44
2022/07/08 11:52:25;;;;;;;4.57;1.67;;;27.10;41.40;;;;;;4992887;28;20043;-46
2022/07/08 11:54:53;;;;;;;4.88;1.00;;;27.20;41.40;;;;;;4996647;28;20128;-44
2022/07/08 11:57:19;;;;;;;2.85;1.25;;;27.30;41.40;;;;;;4985015;28;20034;-46
2022/07/08 11:59:48;;;;;;;3.22;1.33;;;27.40;41.30;;;;;;5004707;28;20096;-47
2022/07/08 12:02:20;;;;;;;2.58;0.75;;;27.40;41.30;;;;;;5004849;28;20097;-48
2022/07/08 12:04:49;;;;;;;2.72;0.80;;;27.60;41.50;;;;;;4982543;28;20065;-44
2022/07/08 12:07:25;;;;;;;1.83;0.80;;;27.60;41.00;;;;;;4992976;28;20039;-48
2022/07/08 12:09:59;;;;;;;3.15;0.90;;;27.70;40.70;;;;;;4989333;28;20042;-46
2022/07/08 12:12:29;;;;;;;1.80;0.93;;;27.80;40.60;;;;;;4982620;28;20034;-46
2022/07/08 12:14:57;;;;;;;3.72;1.23;;;27.90;40.80;;;;;;4993238;28;20089;-46
2022/07/08 12:17:25;;;;;;;1.90;1.13;;;27.90;40.90;;;;;;4979645;28;20043;-46
2022/07/08 12:19:57;;;;;;;3.90;1.10;;;28.00;40.60;;;;;;4976539;28;20390;-48
2022/07/08 12:22:47;;;;;;;2.50;1.10;;;28.10;40.50;;;;;;4988361;28;20045;-45
2022/07/08 12:25:16;;;;;;;2.22;1.20;;;28.10;40.60;;;;;;4992867;28;20054;-47
2022/07/08 12:27:44;;;;;;;2.50;0.68;;;28.20;40.20;;;;;;4991264;28;20058;-45
2022/07/08 12:30:11;;;;;;;1.48;0.75;;;28.20;40.50;;;;;;4988978;28;20046;-45
2022/07/08 12:32:42;;;;;;;4.10;1.30;;;28.20;40.60;;;;;;4999167;28;20046;-46
2022/07/08 12:35:10;;;;;;;2.13;0.80;;;28.30;40.40;;;;;;4986093;28;20030;-44
2022/07/08 12:37:39;;;;;;;2.63;1.40;;;28.30;40.60;;;;;;4973199;28;20047;-45
2022/07/08 12:40:20;;;;;;;2.00;1.45;;;28.40;39.60;;;;;;4978501;28;20117;-45
2022/07/08 12:43:03;;;;;;;4.40;1.20;;;28.40;39.70;;;;;;4999778;28;20502;-46
2022/07/08 12:45:30;;;;;;;2.63;0.93;;;28.50;39.60;;;;;;4991023;28;20074;-46
2022/07/08 12:48:00;;;;;;;3.60;1.15;;;28.50;39.80;;;;;;4986355;28;20584;-46
2022/07/08 12:50:31;;;;;;;3.70;1.27;;;28.50;39.50;;;;;;4995383;28;20108;-46
2022/07/08 12:53:01;;;;;;;7.90;1.95;;;28.50;39.30;;;;;;4992390;28;20090;-46
2022/07/08 12:55:33;;;;;;;5.60;1.65;;;28.50;39.80;;;;;;4991718;28;20045;-46
2022/07/08 12:58:00;;;;;;;9.38;1.60;;;28.50;39.60;;;;;;4993096;28;20049;-48
2022/07/08 13:00:40;;;;;;;7.38;1.67;;;28.50;39.80;;;;;;4995032;28;20043;-49
2022/07/08 13:03:06;;;;;;;5.82;1.55;;;28.60;39.70;;;;;;4991876;28;20046;-45
2022/07/08 13:05:33;;;;;;;5.85;1.70;;;28.60;39.60;;;;;;4991558;28;20038;-46